Home > Products > Valid Products > TAF

000
FTUS42 KJAX 222300 AAA
TAFSSI
TAF AMD
KSSI 222348Z 2300/2324 08010KT P6SM SCT025 OVC035
      TEMPO 2300/2302 5SM -SHRA
     FM230800 08012KT P6SM VCTS SCT015 BKN025CB WS020/14040KT
      TEMPO 2309/2313 3SM RA SCT008 OVC012
     FM231700 17010G18KT 6SM -SHRA SCT020 BKN030=



000
FTUS42 KJAX 222300
TAFJAX
TAF
KJAX 222340Z 2300/2324 09010KT P6SM VCSH SCT025 OVC035
     FM230600 13010KT P6SM VCTS SCT012 OVC020CB WS020/15040KT
      TEMPO 2308/2312 3SM RA BR SCT008 OVC015
     FM231600 18014G22KT 6SM -SHRA SCT025 OVC035=



000
FTUS42 KJAX 222300
TAFCRG
TAF
KCRG 222340Z 2300/2324 09010KT P6SM VCSH SCT025 OVC035
     FM230600 13010KT P6SM VCTS SCT012 OVC020CB WS020/15040KT
      TEMPO 2308/2312 3SM RA BR SCT008 OVC015
     FM231600 18014G22KT 6SM -SHRA SCT025 OVC035=



000
FTUS42 KJAX 222300
TAFGNV
TAF
KGNV 222340Z 2300/2324 09010KT P6SM SCT025 OVC035
     FM230500 11008KT P6SM VCTS SCT012 OVC025CB WS020/14040KT
      TEMPO 2306/2310 3SM SHRA SCT006 OVC012
     FM231400 18013G20KT 6SM -SHRA SCT025 OVC035=



000
FTUS42 KJAX 222300 AAA
TAFGNV
TAF AMD
KGNV 222305Z 2223/2318 09010KT P6SM SCT025 OVC035
     FM230500 11008KT P6SM VCTS SCT012 OVC025CB WS020/14040KT
      TEMPO 2306/2310 3SM SHRA SCT006 OVC012
     FM231400 18013G20KT 6SM -SHRA SCT025 OVC035=



000
FTUS42 KJAX 222200 AAA
TAFCRG
TAF AMD
KCRG 222228Z 2222/2318 09010KT P6SM VCSH SCT025 OVC035
     FM230600 13010KT P6SM VCTS SCT012 OVC020CB WS020/15040KT
      TEMPO 2308/2312 3SM RA BR SCT008 OVC015
     FM231600 18014G22KT 6SM -SHRA SCT025 OVC035=



000
FTUS42 KJAX 222200 AAA
TAFJAX
TAF AMD
KJAX 222225Z 2222/2318 09010KT P6SM VCSH SCT025 OVC035
     FM230600 13010KT P6SM VCTS SCT012 OVC020CB WS020/15040KT
      TEMPO 2308/2312 3SM RA BR SCT008 OVC015
     FM231600 18014G22KT 6SM -SHRA SCT025 OVC035=



000
FTUS42 KJAX 221700
TAFCRG
TAF
KCRG 221736Z 2218/2318 08014G22KT P6SM VCSH OVC035
     FM222200 07012G18KT 6SM -RA OVC025
     FM230200 06012G18KT 5SM RA BR OVC015
     FM230600 09010KT 4SM RA BR OVC008 WS020/14040KT
     FM231600 16014G22KT 5SM SHRA OVC015=



000
FTUS42 KJAX 221700
TAFJAX
TAF
KJAX 221736Z 2218/2318 08014G22KT P6SM VCSH OVC035
     FM222200 07012G18KT 6SM -RA OVC025
     FM230200 06012G18KT 5SM RA BR OVC015
     FM230600 09010KT 4SM RA BR OVC008 WS020/14040KT
     FM231600 16014G22KT 5SM SHRA OVC015=



000
FTUS42 KJAX 221700
TAFSSI
TAF
KSSI 221736Z 2218/2318 05014G22KT P6SM VCSH OVC035
     FM230000 05014G22KT 6SM -RA OVC025
     FM230400 05014G22KT 5SM RA BR OVC015
     FM230800 09010KT 4SM RA BR OVC008 WS020/14040KT=



000
FTUS42 KJAX 221700
TAFGNV
TAF
KGNV 221736Z 2218/2318 07010KT P6SM -RA OVC035
     FM222000 07010KT 6SM -RA BR OVC025
     FM230000 06008KT 5SM RA BR OVC015
     FM230400 09008KT 4SM RA BR OVC008 WS020/14040KT
     FM231400 16013G20KT 6SM SHRA OVC015=



000
FTUS42 KJAX 221500 AAA
TAFSSI
TAF AMD
KSSI 221518Z 2215/2312 04012G20KT P6SM OVC035
     FM222100 05015G25KT P6SM VCSH BKN025 OVC070
     FM230200 06013KT 5SM -RA BR OVC015 WS020/10040KT=



000
FTUS42 KJAX 221500 AAA
TAFGNV
TAF AMD
KGNV 221515Z 2215/2312 04008KT P6SM VCSH OVC035
     FM221800 06010G16KT P6SM -RA BKN025 OVC070
     FM230000 08010KT 5SM -RA BR OVC008 WS020/12040KT=



000
FTUS42 KJAX 221500 AAA
TAFCRG
TAF AMD
KCRG 221511Z 2215/2312 07012G18KT P6SM VCSH OVC035
     FM221800 08013G22KT P6SM VCSH BKN025 OVC070
     FM230000 09010KT 5SM -RA BR OVC010 WS020/12040KT=



000
FTUS42 KJAX 221500 AAA
TAFJAX
TAF AMD
KJAX 221509Z 2215/2312 04010KT P6SM VCSH OVC035
     FM221800 06010G15KT P6SM VCSH BKN025 OVC070
     FM222000 07013G22KT P6SM VCSH BKN020 OVC070
     FM230000 09010KT 5SM -RA BR OVC010 WS020/12040KT=



000
FTUS42 KJAX 221100
TAFGNV
TAF
KGNV 221120Z 2212/2312 03007KT P6SM SCT025 BKN050 BKN080
     FM221400 06010G15KT P6SM VCSH BKN025 OVC070
     FM221600 07013G22KT P6SM VCSH BKN020 OVC070
     FM222200 08010KT 5SM -RA BR OVC008 WS020/12040KT=



000
FTUS42 KJAX 221100
TAFSSI
TAF
KSSI 221120Z 2212/2312 03012G18KT P6SM SCT025 BKN050
     FM221500 04013G20KT P6SM VCSH BKN025 OVC070
     FM221700 05015G25KT P6SM VCSH BKN020 OVC070
     FM230200 06013KT 5SM -RA BR OVC015 WS020/10040KT=



000
FTUS42 KJAX 221100
TAFJAX
TAF
KJAX 221120Z 2212/2312 03007KT P6SM SCT025 BKN050
     FM221400 06010G15KT P6SM VCSH BKN025 OVC070
     FM221600 07013G22KT P6SM VCSH BKN020 OVC070
     FM230000 09010KT 5SM -RA BR OVC010 WS020/12040KT=



000
FTUS42 KJAX 221100
TAFCRG
TAF
KCRG 221120Z 2212/2312 03008KT P6SM SCT025 BKN050
     FM221400 05010G15KT P6SM VCSH BKN025 OVC070
     FM221600 06013G22KT P6SM VCSH BKN020 OVC070
     FM230000 09010KT 5SM -RA BR OVC010 WS020/12040KT=



000
FTUS42 KJAX 220500
TAFGNV
TAF
KGNV 220520Z 2206/2306 03005KT P6SM FEW035 SCT100
     FM221100 03007KT P6SM SCT025 BKN035 BKN080
     FM221300 06010G15KT P6SM VCSH BKN025 OVC070
     FM221600 07013G22KT P6SM VCSH BKN020 OVC070
     FM222200 08010KT 5SM -RA BR OVC012=



000
FTUS42 KJAX 220500
TAFJAX
TAF
KJAX 220520Z 2206/2306 03005KT P6SM FEW035 SCT100
     FM221100 03007KT P6SM SCT025 BKN035 BKN080
     FM221300 06010G15KT P6SM VCSH BKN025 OVC070
     FM221600 07013G22KT P6SM VCSH BKN020 OVC070
     FM230000 08010KT 5SM -RA BR OVC015=



000
FTUS42 KJAX 220500
TAFSSI
TAF
KSSI 220520Z 2206/2306 04010KT P6SM FEW035 SCT100
     FM221100 03011KT P6SM SCT025 BKN035 BKN080
     FM221300 04013G18KT P6SM VCSH BKN025 OVC070
     FM221600 05015G24KT P6SM VCSH BKN020 OVC070
     FM230200 06012KT 5SM -RA BR OVC015=



000
FTUS42 KJAX 220500
TAFCRG
TAF
KCRG 220520Z 2206/2306 03005KT P6SM FEW035 SCT100
     FM221100 03007KT P6SM SCT025 BKN035 BKN080
     FM221300 05010G15KT P6SM VCSH BKN025 OVC070
     FM221600 06013G22KT P6SM VCSH BKN020 OVC070
     FM230000 07010KT 5SM -RA BR OVC015=



000
FTUS42 KJAX 212300
TAFGNV
TAF
KGNV 212340Z 2200/2224 04004KT P6SM FEW100 SCT250
     FM220600 05005KT P6SM FEW035 BKN100
     FM221100 05007KT P6SM FEW025 SCT035 BKN080
     FM221300 06008G15KT P6SM VCSH SCT025 OVC070
     FM221700 07011G16KT P6SM -SHRA BKN020 OVC070=



000
FTUS42 KJAX 212300
TAFJAX
TAF
KJAX 212340Z 2200/2224 03004KT P6SM FEW250
     FM220600 03005KT P6SM FEW035 SCT100 SCT250
     FM221100 03007KT P6SM SCT025 BKN035 BKN080
     FM221300 06010G15KT P6SM VCSH BKN025 OVC070
     FM221600 07013G22KT P6SM VCSH BKN020 OVC070=



000
FTUS42 KJAX 212300
TAFSSI
TAF
KSSI 212340Z 2200/2224 05006KT P6SM SKC
     FM220600 05008KT P6SM FEW035
     FM221100 05010G15KT P6SM SCT035 SCT080
     FM221300 06012G21KT P6SM SCT025 BKN080
     FM221600 07014G23KT P6SM VCSH BKN025 OVC070=



000
FTUS42 KJAX 212300
TAFCRG
TAF
KCRG 212340Z 2200/2224 03005KT P6SM FEW250
     FM220600 03006KT P6SM FEW035 SCT100 SCT250
     FM221100 03008G15KT P6SM SCT025 BKN035 BKN080
     FM221300 06012G21KT P6SM VCSH BKN025 OVC070
     FM221600 07014G23KT P6SM -SHRA BKN020 OVC070=



000
FTUS42 KJAX 211700
TAFSSI
TAF
KSSI 211720Z 2118/2218 07009KT P6SM SKC
     FM220200 04007KT P6SM SCT250
     FM220500 05009KT P6SM SCT025 BKN035
     FM221100 05010KT P6SM VCSH BKN025
     FM221500 06013G21KT P6SM -SHRA BKN020=



000
FTUS42 KJAX 211700
TAFCRG
TAF
KCRG 211720Z 2118/2218 05010KT P6SM SKC
     FM220200 03006KT P6SM SCT250
     FM220500 05006KT P6SM SCT025 BKN035
     FM221000 04007KT P6SM VCSH BKN025
     FM221500 07013G21KT P6SM -SHRA BKN020=



000
FTUS42 KJAX 211700
TAFJAX
TAF
KJAX 211720Z 2118/2218 06010KT P6SM SKC
     FM220200 03006KT P6SM SCT250
     FM220500 05006KT P6SM SCT025 BKN035
     FM221000 03005KT P6SM VCSH BKN025
     FM221500 07012G20KT P6SM -SHRA BKN020=



000
FTUS42 KJAX 211700
TAFGNV
TAF
KGNV 211720Z 2118/2218 06012KT P6SM SKC
     FM220200 04007KT P6SM SCT250
     FM220500 03005KT P6SM SCT025 BKN035
     FM221000 03005KT P6SM BKN025
     FM221500 07012G20KT P6SM VCSH OVC020=



000
FTUS42 KJAX 211100
TAFSSI
TAF
KSSI 211120Z 2112/2212 35004KT P6SM SKC
     FM211400 03012KT P6SM SKC
     FM220600 04010KT P6SM BKN015=



000
FTUS42 KJAX 211100
TAFGNV
TAF
KGNV 211120Z 2112/2212 00000KT P6SM SKC
     FM211400 04010KT P6SM SKC
     FM212300 05007KT P6SM SCT030 BKN250
     FM220500 05006KT P6SM BKN015=



000
FTUS42 KJAX 211100
TAFJAX
TAF
KJAX 211120Z 2112/2212 00000KT P6SM SKC
     FM211400 04010KT P6SM SKC
     FM212300 05007KT P6SM SCT030
     FM220500 05006KT P6SM BKN015=



000
FTUS42 KJAX 211100
TAFCRG
TAF
KCRG 211120Z 2112/2212 00000KT P6SM SKC
     FM211400 03012KT P6SM SKC
     FM212300 04008KT P6SM SCT030
     FM220400 04007KT P6SM BKN015=



000
FTUS42 KJAX 210500
TAFGNV
TAF
KGNV 210520Z 2106/2206 00000KT P6SM SCT250
     FM211400 04010KT P6SM SCT250
     FM212300 05007KT P6SM SCT030 BKN250=



000
FTUS42 KJAX 210500
TAFSSI
TAF
KSSI 210520Z 2106/2206 00000KT P6SM SCT250
     FM211400 03012KT P6SM SCT250=



000
FTUS42 KJAX 210500
TAFCRG
TAF
KCRG 210520Z 2106/2206 00000KT P6SM SCT250
     FM211400 03012KT P6SM SCT250
     FM212300 04008KT P6SM SCT030=



000
FTUS42 KJAX 210500
TAFJAX
TAF
KJAX 210520Z 2106/2206 00000KT P6SM SCT250
     FM211400 04010KT P6SM SCT250
     FM212300 05007KT P6SM SCT030=



000
FTUS42 KJAX 202300
TAFCRG
TAF
KCRG 202330Z 2100/2124 00000KT P6SM SCT250
     FM211400 04010KT P6SM SCT030=



000
FTUS42 KJAX 202300
TAFJAX
TAF
KJAX 202330Z 2100/2124 00000KT P6SM SCT250
     FM211400 04010KT P6SM SCT030=



000
FTUS42 KJAX 202300
TAFSSI
TAF
KSSI 202330Z 2100/2124 VRB03KT P6SM FEW250
     FM211400 04010KT P6SM SCT025=



000
FTUS42 KJAX 202300
TAFGNV
TAF
KGNV 202330Z 2100/2124 00000KT P6SM SCT250
     FM211400 05009KT P6SM FEW030=



000
FTUS42 KJAX 201700
TAFJAX
TAF
KJAX 201726Z 2018/2118 33008KT P6SM BKN250
     FM202200 00000KT P6SM FEW250
     FM211400 03008KT P6SM SCT040 BKN250
      TEMPO 2114/2118 BKN025=



000
FTUS42 KJAX 201700
TAFCRG
TAF
KCRG 201726Z 2018/2118 30006KT P6SM BKN250
     FM202200 VRB03KT P6SM FEW250
     FM210600 00000KT P6SM SCT250
     FM211400 03010KT P6SM SCT040 BKN250
      TEMPO 2114/2118 BKN025=



000
FTUS42 KJAX 201700
TAFGNV
TAF
KGNV 201726Z 2018/2118 33005KT P6SM BKN250
     FM202200 VRB03KT P6SM SCT250
     FM210200 00000KT P6SM SCT250
     FM211400 04008KT P6SM SKC=



000
FTUS42 KJAX 201700
TAFSSI
TAF
KSSI 201726Z 2018/2118 27007KT P6SM SKC
     FM202200 VRB03KT P6SM FEW250
     FM210600 VRB03KT P6SM SCT250
     FM211500 03008KT P6SM SCT025=



000
FTUS42 KJAX 201100
TAFGNV
TAF
KGNV 201140Z 2012/2112 00000KT P6SM FEW250
     FM201500 01005KT P6SM SCT250
     FM202200 04003KT P6SM SCT250
     FM210200 00000KT P6SM FEW050 SCT250=



000
FTUS42 KJAX 201100
TAFCRG
TAF
KCRG 201140Z 2012/2112 00000KT P6SM SKC
     FM201500 33006KT P6SM SKC
     FM202200 05003KT P6SM FEW250
     FM210600 00000KT P6SM FEW050 SCT250=



000
FTUS42 KJAX 201100
TAFSSI
TAF
KSSI 201140Z 2012/2112 00000KT P6SM SKC
     FM201500 32006KT P6SM SKC
     FM202200 VRB03KT P6SM FEW250
     FM210600 28003KT P6SM SCT250=



000
FTUS42 KJAX 201100
TAFJAX
TAF
KJAX 201140Z 2012/2112 00000KT P6SM SKC
     FM201500 33005KT P6SM SKC
     FM202300 00000KT P6SM FEW250=



000
FTUS42 KJAX 200500
TAFSSI
TAF
KSSI 200538Z 2006/2106 00000KT P6SM SKC
     FM201500 30006KT P6SM SKC
     FM202200 VRB03KT P6SM FEW250=



000
FTUS42 KJAX 200500
TAFGNV
TAF
KGNV 200538Z 2006/2106 00000KT P6SM SKC
     FM201500 01005KT P6SM SKC
     FM202200 04003KT P6SM FEW250=



000
FTUS42 KJAX 200500
TAFCRG
TAF
KCRG 200538Z 2006/2106 00000KT P6SM SKC
     FM201500 33006KT P6SM SKC
     FM202200 05003KT P6SM FEW250=



000
FTUS42 KJAX 200500
TAFJAX
TAF
KJAX 200538Z 2006/2106 00000KT P6SM SKC
     FM201500 33005KT P6SM SKC
     FM202300 00000KT P6SM FEW250=



    US Dept of Commerce
    National Oceanic and Atmospheric Administration
    National Weather Service
    1325 East West Highway
    Silver Spring, MD 20910
    Page Author: NWS Internet Services Team
Disclaimer
Information Quality
Credits
Glossary
Privacy Policy
Freedom of Information Act (FOIA)
About Us
Career Opportunities